createdAt,value
2018-01-15T00:08:01.440Z,79.30
2018-01-15T00:18:02.973Z,79.40
2018-01-15T00:28:04.537Z,78.80
2018-01-15T00:38:06.104Z,78.60
2018-01-15T00:48:07.688Z,79.20
2018-01-15T00:58:09.271Z,79.50
2018-01-15T01:08:11.543Z,79.80
2018-01-15T01:18:13.064Z,79.70
2018-01-15T01:28:14.649Z,79.80
2018-01-15T01:38:16.194Z,80.40
2018-01-15T01:48:17.884Z,80.20
2018-01-15T01:58:20.177Z,80.80
2018-01-15T02:08:21.736Z,80.70
2018-01-15T02:18:23.317Z,82.10
2018-01-15T02:28:24.760Z,82.30
2018-01-15T02:38:26.268Z,82.30
2018-01-15T02:48:27.800Z,83.00
2018-01-15T02:58:29.329Z,82.70
2018-01-15T03:08:30.832Z,83.20
2018-01-15T03:18:32.452Z,82.20
2018-01-15T03:28:33.940Z,81.00
2018-01-15T03:38:35.498Z,80.70
2018-01-15T03:48:37.196Z,80.80
2018-01-15T03:58:38.759Z,80.40
2018-01-15T04:08:40.308Z,81.20
2018-01-15T04:18:41.852Z,81.00
2018-01-15T04:28:43.368Z,80.00
2018-01-15T04:38:44.873Z,79.90
2018-01-15T04:48:47.140Z,80.50
2018-01-15T04:58:48.769Z,80.40
2018-01-15T05:08:50.315Z,81.00
2018-01-15T05:18:54.756Z,80.20
2018-01-15T05:28:57.595Z,81.00
2018-01-15T05:38:59.852Z,80.40
2018-01-15T05:49:01.418Z,80.40
2018-01-15T05:59:04.410Z,80.20
2018-01-15T06:09:06.075Z,79.80
2018-01-15T06:19:07.895Z,80.10
2018-01-15T06:29:09.460Z,79.80
2018-01-15T06:39:11.751Z,78.60
2018-01-15T06:49:13.970Z,78.60
2018-01-15T06:59:16.264Z,78.50
2018-01-15T07:09:18.523Z,77.90
2018-01-15T07:19:20.799Z,76.20
2018-01-15T07:29:22.318Z,76.20
2018-01-15T07:39:23.937Z,77.80
2018-01-15T07:49:26.205Z,76.20
2018-01-15T07:59:27.739Z,76.10
2018-01-15T08:09:29.228Z,76.20
2018-01-15T08:19:30.798Z,76.80
2018-01-15T08:29:32.311Z,76.30
2018-01-15T08:39:33.848Z,76.50
2018-01-15T08:49:35.381Z,76.70
2018-01-15T08:59:36.973Z,75.50
2018-01-15T09:09:38.492Z,79.30
2018-01-15T09:19:40.048Z,74.70
2018-01-15T09:29:42.348Z,74.80
2018-01-15T09:39:43.876Z,74.70
2018-01-15T09:49:45.430Z,74.80
2018-01-15T09:59:47.006Z,75.90
2018-01-15T10:09:48.522Z,75.80
2018-01-15T10:19:50.137Z,75.10
2018-01-15T10:29:51.707Z,75.60
2018-01-15T10:39:53.467Z,76.10
2018-01-15T10:49:55.751Z,70.50
2018-01-15T10:59:57.308Z,70.40
2018-01-15T11:09:58.845Z,71.10
2018-01-15T11:20:00.467Z,71.10
2018-01-15T11:30:02.033Z,71.40
2018-01-15T11:40:03.585Z,73.90
2018-01-15T11:50:05.867Z,73.40
2018-01-15T12:00:07.453Z,73.40
2018-01-15T12:10:09.006Z,72.10
2018-01-15T12:20:11.308Z,72.20
2018-01-15T12:30:13.561Z,70.50
2018-01-15T12:40:15.244Z,70.50
2018-01-15T12:50:16.962Z,70.10
2018-01-15T13:00:18.641Z,70.40
2018-01-15T13:10:20.963Z,71.00
2018-01-15T13:20:23.252Z,70.80
2018-01-15T13:30:24.849Z,70.70
2018-01-15T13:40:26.546Z,71.40
2018-01-15T13:50:28.083Z,71.90
2018-01-15T14:00:29.637Z,70.60
2018-01-15T14:10:31.121Z,69.50
2018-01-15T14:20:32.678Z,69.10
2018-01-15T14:30:34.944Z,69.50
2018-01-15T14:40:36.513Z,69.40
2018-01-15T14:50:38.077Z,69.50
2018-01-15T15:00:39.949Z,69.50
2018-01-15T15:10:41.508Z,68.90
2018-01-15T15:20:43.067Z,68.60
2018-01-15T15:30:44.597Z,68.70
2018-01-15T15:40:46.853Z,72.40
2018-01-15T15:50:48.509Z,72.20
2018-01-15T16:00:50.193Z,75.90
2018-01-15T16:10:51.744Z,78.00
2018-01-15T16:20:53.588Z,78.80
2018-01-15T16:30:55.193Z,77.60
2018-01-15T16:40:56.849Z,77.20
2018-01-15T16:50:58.436Z,76.90
2018-01-15T17:01:00.091Z,76.40
2018-01-15T17:11:03.270Z,75.70
2018-01-15T17:21:05.733Z,74.50
2018-01-15T17:31:07.434Z,74.40
2018-01-15T17:41:08.929Z,74.50
2018-01-15T17:51:10.485Z,76.20
2018-01-15T18:01:12.789Z,79.60
2018-01-15T18:11:14.327Z,79.40
2018-01-15T18:21:16.034Z,80.40
2018-01-15T18:31:17.681Z,80.50
2018-01-15T18:41:19.292Z,82.10
2018-01-15T18:51:20.815Z,82.70
2018-01-15T19:01:22.327Z,83.00
2018-01-15T19:11:23.879Z,83.40
2018-01-15T19:21:25.610Z,83.10
2018-01-15T19:31:28.054Z,85.10
2018-01-15T19:41:34.391Z,86.20
2018-01-15T19:51:42.107Z,86.10
2018-01-15T20:01:49.812Z,86.40
2018-01-15T20:11:51.752Z,86.80
2018-01-15T20:21:54.114Z,86.70
2018-01-15T20:31:55.886Z,86.70
2018-01-15T20:41:57.625Z,86.30
2018-01-15T20:51:59.270Z,86.70
2018-01-15T21:02:00.893Z,86.90
2018-01-15T21:12:02.545Z,86.60
2018-01-15T21:22:04.178Z,86.30
2018-01-15T21:32:06.524Z,85.00
2018-01-15T21:42:08.115Z,84.90
2018-01-15T21:52:10.562Z,84.10
2018-01-15T22:02:12.054Z,84.10
2018-01-15T22:12:13.630Z,83.80
2018-01-15T22:22:15.880Z,83.40
2018-01-15T22:32:17.483Z,83.30
2018-01-15T22:42:19.112Z,83.30
2018-01-15T22:52:20.655Z,83.10
2018-01-15T23:02:22.302Z,82.30
2018-01-15T23:12:23.820Z,82.40
2018-01-15T23:22:25.424Z,81.30
2018-01-15T23:32:26.967Z,81.20
2018-01-15T23:42:28.556Z,80.90
2018-01-15T23:52:30.087Z,80.80
